sensor_id;sensor_type;location;lat;lon;timestamp;temperature;humidity
39503;DHT22;26970;49.900;10.774;2022-10-26T00:00:25;9.60;99.90
39503;DHT22;26970;49.900;10.774;2022-10-26T00:02:53;9.60;99.90
39503;DHT22;26970;49.900;10.774;2022-10-26T00:05:19;9.60;99.90
39503;DHT22;26970;49.900;10.774;2022-10-26T00:07:46;9.60;99.90
39503;DHT22;26970;49.900;10.774;2022-10-26T00:10:12;9.60;99.90
39503;DHT22;26970;49.900;10.774;2022-10-26T00:12:38;9.60;99.90
39503;DHT22;26970;49.900;10.774;2022-10-26T00:15:03;9.60;99.90
39503;DHT22;26970;49.900;10.774;2022-10-26T00:17:29;9.60;99.90
39503;DHT22;26970;49.900;10.774;2022-10-26T00:19:55;9.60;99.90
39503;DHT22;26970;49.900;10.774;2022-10-26T00:22:22;10.20;99.90
39503;DHT22;26970;49.900;10.774;2022-10-26T00:24:48;9.60;99.90
39503;DHT22;26970;49.900;10.774;2022-10-26T00:27:13;9.70;99.90
39503;DHT22;26970;49.900;10.774;2022-10-26T00:29:39;9.70;99.90
39503;DHT22;26970;49.900;10.774;2022-10-26T00:32:05;9.80;99.90
39503;DHT22;26970;49.900;10.774;2022-10-26T00:34:31;9.80;99.90
39503;DHT22;26970;49.900;10.774;2022-10-26T00:36:57;9.80;99.90
39503;DHT22;26970;49.900;10.774;2022-10-26T00:39:22;9.90;99.90
39503;DHT22;26970;49.900;10.774;2022-10-26T00:41:48;9.90;99.90
39503;DHT22;26970;49.900;10.774;2022-10-26T00:47:42;9.70;99.90
39503;DHT22;26970;49.900;10.774;2022-10-26T00:50:19;9.80;99.90
39503;DHT22;26970;49.900;10.774;2022-10-26T00:52:45;9.70;99.90
39503;DHT22;26970;49.900;10.774;2022-10-26T00:55:11;9.80;99.90
39503;DHT22;26970;49.900;10.774;2022-10-26T00:57:38;9.70;99.90
39503;DHT22;26970;49.900;10.774;2022-10-26T01:00:05;9.70;99.90
39503;DHT22;26970;49.900;10.774;2022-10-26T01:02:32;9.80;99.90
39503;DHT22;26970;49.900;10.774;2022-10-26T01:04:58;9.70;99.90
39503;DHT22;26970;49.900;10.774;2022-10-26T01:07:25;9.70;99.90
39503;DHT22;26970;49.900;10.774;2022-10-26T01:09:52;9.60;99.90
39503;DHT22;26970;49.900;10.774;2022-10-26T01:12:17;9.50;99.90
39503;DHT22;26970;49.900;10.774;2022-10-26T01:14:43;9.50;99.90
39503;DHT22;26970;49.900;10.774;2022-10-26T01:17:21;9.40;99.90
39503;DHT22;26970;49.900;10.774;2022-10-26T01:31:14;9.20;99.90
39503;DHT22;26970;49.900;10.774;2022-10-26T01:33:51;9.20;99.90
39503;DHT22;26970;49.900;10.774;2022-10-26T01:36:50;9.20;99.90
39503;DHT22;26970;49.900;10.774;2022-10-26T01:39:38;9.20;99.90
39503;DHT22;26970;49.900;10.774;2022-10-26T01:42:07;9.20;99.90
39503;DHT22;26970;49.900;10.774;2022-10-26T01:44:37;9.30;99.90
39503;DHT22;26970;49.900;10.774;2022-10-26T01:47:08;9.20;99.90
39503;DHT22;26970;49.900;10.774;2022-10-26T01:49:38;9.20;99.90
39503;DHT22;26970;49.900;10.774;2022-10-26T01:52:10;9.20;99.90
39503;DHT22;26970;49.900;10.774;2022-10-26T01:54:37;9.10;99.90
39503;DHT22;26970;49.900;10.774;2022-10-26T01:57:11;9.10;99.90
39503;DHT22;26970;49.900;10.774;2022-10-26T02:05:19;9.20;99.90
39503;DHT22;26970;49.900;10.774;2022-10-26T02:10:29;9.20;99.90
39503;DHT22;26970;49.900;10.774;2022-10-26T02:13:26;9.20;99.90
39503;DHT22;26970;49.900;10.774;2022-10-26T02:18:35;9.20;99.90
39503;DHT22;26970;49.900;10.774;2022-10-26T02:21:14;9.20;99.90
39503;DHT22;26970;49.900;10.774;2022-10-26T02:23:44;9.20;99.90
39503;DHT22;26970;49.900;10.774;2022-10-26T02:26:13;9.20;99.90
39503;DHT22;26970;49.900;10.774;2022-10-26T02:28:43;9.10;99.90
39503;DHT22;26970;49.900;10.774;2022-10-26T02:31:13;9.20;99.90
39503;DHT22;26970;49.900;10.774;2022-10-26T02:33:45;9.20;99.90
39503;DHT22;26970;49.900;10.774;2022-10-26T02:36:14;9.30;99.90
39503;DHT22;26970;49.900;10.774;2022-10-26T02:38:41;9.30;99.90
39503;DHT22;26970;49.900;10.774;2022-10-26T02:41:09;9.30;99.90
39503;DHT22;26970;49.900;10.774;2022-10-26T02:43:44;9.30;99.90
39503;DHT22;26970;49.900;10.774;2022-10-26T02:46:15;9.30;99.90
39503;DHT22;26970;49.900;10.774;2022-10-26T02:48:42;9.30;99.90
39503;DHT22;26970;49.900;10.774;2022-10-26T02:57:28;9.20;99.90
39503;DHT22;26970;49.900;10.774;2022-10-26T02:59:58;9.20;99.90
39503;DHT22;26970;49.900;10.774;2022-10-26T03:02:24;9.50;99.90
39503;DHT22;26970;49.900;10.774;2022-10-26T03:04:51;9.60;99.90
39503;DHT22;26970;49.900;10.774;2022-10-26T03:07:24;9.50;99.90
39503;DHT22;26970;49.900;10.774;2022-10-26T03:09:50;9.50;99.90
39503;DHT22;26970;49.900;10.774;2022-10-26T03:12:16;9.60;99.90
39503;DHT22;26970;49.900;10.774;2022-10-26T03:14:41;9.60;99.90
39503;DHT22;26970;49.900;10.774;2022-10-26T03:17:07;9.60;99.90
39503;DHT22;26970;49.900;10.774;2022-10-26T03:19:33;9.60;99.90
39503;DHT22;26970;49.900;10.774;2022-10-26T03:21:58;9.60;99.90
39503;DHT22;26970;49.900;10.774;2022-10-26T03:24:24;9.60;99.90
39503;DHT22;26970;49.900;10.774;2022-10-26T03:26:49;9.70;99.90
39503;DHT22;26970;49.900;10.774;2022-10-26T03:29:15;9.70;99.90
39503;DHT22;26970;49.900;10.774;2022-10-26T03:31:41;9.70;99.90
39503;DHT22;26970;49.900;10.774;2022-10-26T03:34:06;9.80;99.90
39503;DHT22;26970;49.900;10.774;2022-10-26T03:36:32;10.00;99.90
39503;DHT22;26970;49.900;10.774;2022-10-26T03:38:58;10.00;99.90
39503;DHT22;26970;49.900;10.774;2022-10-26T03:41:24;10.10;99.90
39503;DHT22;26970;49.900;10.774;2022-10-26T03:43:49;10.10;99.90
39503;DHT22;26970;49.900;10.774;2022-10-26T03:46:15;10.20;99.90
39503;DHT22;26970;49.900;10.774;2022-10-26T03:48:40;10.20;99.90
39503;DHT22;26970;49.900;10.774;2022-10-26T03:51:06;10.20;99.90
39503;DHT22;26970;49.900;10.774;2022-10-26T03:53:32;10.20;99.90
39503;DHT22;26970;49.900;10.774;2022-10-26T03:55:57;10.10;99.90
39503;DHT22;26970;49.900;10.774;2022-10-26T03:58:23;9.90;99.90
39503;DHT22;26970;49.900;10.774;2022-10-26T04:00:48;9.80;99.90
39503;DHT22;26970;49.900;10.774;2022-10-26T04:03:14;9.40;99.90
39503;DHT22;26970;49.900;10.774;2022-10-26T04:05:40;9.30;99.90
39503;DHT22;26970;49.900;10.774;2022-10-26T04:08:05;9.10;99.90
39503;DHT22;26970;49.900;10.774;2022-10-26T04:10:31;9.00;99.90
39503;DHT22;26970;49.900;10.774;2022-10-26T04:12:57;9.00;99.90
39503;DHT22;26970;49.900;10.774;2022-10-26T04:15:24;9.00;99.90
39503;DHT22;26970;49.900;10.774;2022-10-26T04:18:01;9.00;99.90
39503;DHT22;26970;49.900;10.774;2022-10-26T04:20:28;9.00;99.90
39503;DHT22;26970;49.900;10.774;2022-10-26T04:23:02;9.10;99.90
39503;DHT22;26970;49.900;10.774;2022-10-26T04:25:29;9.20;99.90
39503;DHT22;26970;49.900;10.774;2022-10-26T04:27:55;9.20;99.90
39503;DHT22;26970;49.900;10.774;2022-10-26T04:30:21;9.30;99.90
39503;DHT22;26970;49.900;10.774;2022-10-26T04:32:47;9.30;99.90
39503;DHT22;26970;49.900;10.774;2022-10-26T04:35:13;9.40;99.90
39503;DHT22;26970;49.900;10.774;2022-10-26T04:37:39;9.60;99.90
39503;DHT22;26970;49.900;10.774;2022-10-26T04:40:05;9.70;99.90
39503;DHT22;26970;49.900;10.774;2022-10-26T04:42:30;9.80;99.90
39503;DHT22;26970;49.900;10.774;2022-10-26T04:44:59;9.90;99.90
39503;DHT22;26970;49.900;10.774;2022-10-26T04:47:24;9.90;99.90
39503;DHT22;26970;49.900;10.774;2022-10-26T04:49:50;9.80;99.90
39503;DHT22;26970;49.900;10.774;2022-10-26T04:52:16;9.80;99.90
39503;DHT22;26970;49.900;10.774;2022-10-26T04:54:41;9.80;99.90
39503;DHT22;26970;49.900;10.774;2022-10-26T04:57:07;9.70;99.90
39503;DHT22;26970;49.900;10.774;2022-10-26T04:59:32;9.70;99.90
39503;DHT22;26970;49.900;10.774;2022-10-26T05:01:58;9.70;99.90
39503;DHT22;26970;49.900;10.774;2022-10-26T05:04:24;9.60;99.90
39503;DHT22;26970;49.900;10.774;2022-10-26T05:06:51;9.50;99.90
39503;DHT22;26970;49.900;10.774;2022-10-26T05:09:18;9.50;99.90
39503;DHT22;26970;49.900;10.774;2022-10-26T05:11:43;9.50;99.90
39503;DHT22;26970;49.900;10.774;2022-10-26T05:14:09;9.50;99.90
39503;DHT22;26970;49.900;10.774;2022-10-26T05:16:34;9.50;99.90
39503;DHT22;26970;49.900;10.774;2022-10-26T05:19:00;9.50;99.90
39503;DHT22;26970;49.900;10.774;2022-10-26T05:21:26;9.60;99.90
39503;DHT22;26970;49.900;10.774;2022-10-26T05:23:52;9.60;99.90
39503;DHT22;26970;49.900;10.774;2022-10-26T05:26:20;9.70;99.90
39503;DHT22;26970;49.900;10.774;2022-10-26T05:28:46;9.70;99.90
39503;DHT22;26970;49.900;10.774;2022-10-26T05:31:12;9.80;99.90
39503;DHT22;26970;49.900;10.774;2022-10-26T05:33:38;9.80;99.90
39503;DHT22;26970;49.900;10.774;2022-10-26T05:36:04;9.80;99.90
39503;DHT22;26970;49.900;10.774;2022-10-26T05:38:30;9.80;99.90
39503;DHT22;26970;49.900;10.774;2022-10-26T05:40:55;9.80;99.90
39503;DHT22;26970;49.900;10.774;2022-10-26T05:43:22;9.90;99.90
39503;DHT22;26970;49.900;10.774;2022-10-26T05:45:49;9.90;99.90
39503;DHT22;26970;49.900;10.774;2022-10-26T05:48:15;9.90;99.90
39503;DHT22;26970;49.900;10.774;2022-10-26T05:50:41;9.90;99.90
39503;DHT22;26970;49.900;10.774;2022-10-26T05:53:07;9.90;99.90
39503;DHT22;26970;49.900;10.774;2022-10-26T05:55:33;9.90;99.90
39503;DHT22;26970;49.900;10.774;2022-10-26T05:57:59;10.00;99.90
39503;DHT22;26970;49.900;10.774;2022-10-26T06:00:26;10.10;99.90
39503;DHT22;26970;49.900;10.774;2022-10-26T06:05:54;10.10;99.90
39503;DHT22;26970;49.900;10.774;2022-10-26T06:08:23;10.00;99.90
39503;DHT22;26970;49.900;10.774;2022-10-26T06:10:49;10.20;99.90
39503;DHT22;26970;49.900;10.774;2022-10-26T06:13:16;10.20;99.90
39503;DHT22;26970;49.900;10.774;2022-10-26T06:16:24;10.20;99.90
39503;DHT22;26970;49.900;10.774;2022-10-26T06:18:58;10.20;99.90
39503;DHT22;26970;49.900;10.774;2022-10-26T06:24:34;10.20;99.90
39503;DHT22;26970;49.900;10.774;2022-10-26T06:32:08;10.30;99.90
39503;DHT22;26970;49.900;10.774;2022-10-26T06:34:35;10.30;99.90
39503;DHT22;26970;49.900;10.774;2022-10-26T06:37:03;10.40;99.90
39503;DHT22;26970;49.900;10.774;2022-10-26T06:39:30;10.40;99.90
39503;DHT22;26970;49.900;10.774;2022-10-26T06:42:00;10.40;99.90
39503;DHT22;26970;49.900;10.774;2022-10-26T06:44:26;10.40;99.90
39503;DHT22;26970;49.900;10.774;2022-10-26T06:47:33;10.40;99.90
39503;DHT22;26970;49.900;10.774;2022-10-26T06:50:17;10.40;99.90
39503;DHT22;26970;49.900;10.774;2022-10-26T06:52:50;10.30;99.90
39503;DHT22;26970;49.900;10.774;2022-10-26T06:55:21;10.30;99.90
39503;DHT22;26970;49.900;10.774;2022-10-26T06:57:47;10.40;99.90
39503;DHT22;26970;49.900;10.774;2022-10-26T07:00:19;10.40;99.90
39503;DHT22;26970;49.900;10.774;2022-10-26T07:02:45;10.40;99.90
39503;DHT22;26970;49.900;10.774;2022-10-26T07:05:12;10.30;99.90
39503;DHT22;26970;49.900;10.774;2022-10-26T07:07:46;10.30;99.90
39503;DHT22;26970;49.900;10.774;2022-10-26T07:10:12;10.30;99.90
39503;DHT22;26970;49.900;10.774;2022-10-26T07:12:38;10.20;99.90
39503;DHT22;26970;49.900;10.774;2022-10-26T07:15:05;10.10;99.90
39503;DHT22;26970;49.900;10.774;2022-10-26T07:17:31;10.20;99.90
39503;DHT22;26970;49.900;10.774;2022-10-26T07:20:06;10.20;99.90
39503;DHT22;26970;49.900;10.774;2022-10-26T07:22:32;10.20;99.90
39503;DHT22;26970;49.900;10.774;2022-10-26T07:24:58;10.40;99.90
39503;DHT22;26970;49.900;10.774;2022-10-26T07:27:23;10.50;99.90
39503;DHT22;26970;49.900;10.774;2022-10-26T07:29:49;10.70;99.90
39503;DHT22;26970;49.900;10.774;2022-10-26T07:32:16;11.00;99.90
39503;DHT22;26970;49.900;10.774;2022-10-26T07:34:41;11.20;99.90
39503;DHT22;26970;49.900;10.774;2022-10-26T07:37:07;11.50;99.90
39503;DHT22;26970;49.900;10.774;2022-10-26T07:39:32;11.60;99.90
39503;DHT22;26970;49.900;10.774;2022-10-26T07:41:58;11.70;99.90
39503;DHT22;26970;49.900;10.774;2022-10-26T07:44:24;11.70;99.90
39503;DHT22;26970;49.900;10.774;2022-10-26T07:46:50;11.60;99.90
39503;DHT22;26970;49.900;10.774;2022-10-26T07:49:15;11.60;99.90
39503;DHT22;26970;49.900;10.774;2022-10-26T07:51:41;11.60;99.90
39503;DHT22;26970;49.900;10.774;2022-10-26T07:54:07;11.50;99.90
39503;DHT22;26970;49.900;10.774;2022-10-26T07:56:32;11.40;99.90
39503;DHT22;26970;49.900;10.774;2022-10-26T07:58:58;11.40;99.90
39503;DHT22;26970;49.900;10.774;2022-10-26T08:01:24;11.40;99.90
39503;DHT22;26970;49.900;10.774;2022-10-26T08:03:53;11.30;99.90
39503;DHT22;26970;49.900;10.774;2022-10-26T08:06:20;11.30;99.90
39503;DHT22;26970;49.900;10.774;2022-10-26T08:08:46;11.30;99.90
39503;DHT22;26970;49.900;10.774;2022-10-26T08:11:12;11.30;99.90
39503;DHT22;26970;49.900;10.774;2022-10-26T08:13:38;11.40;99.90
39503;DHT22;26970;49.900;10.774;2022-10-26T08:16:04;11.50;99.90
39503;DHT22;26970;49.900;10.774;2022-10-26T08:18:30;11.50;99.90
39503;DHT22;26970;49.900;10.774;2022-10-26T08:21:01;11.60;99.90
39503;DHT22;26970;49.900;10.774;2022-10-26T08:23:27;11.70;99.90
39503;DHT22;26970;49.900;10.774;2022-10-26T08:25:58;11.80;99.90
39503;DHT22;26970;49.900;10.774;2022-10-26T08:28:24;11.90;99.90
39503;DHT22;26970;49.900;10.774;2022-10-26T08:30:50;12.00;99.90
39503;DHT22;26970;49.900;10.774;2022-10-26T08:33:15;12.00;99.90
39503;DHT22;26970;49.900;10.774;2022-10-26T08:35:41;12.00;99.90
39503;DHT22;26970;49.900;10.774;2022-10-26T08:38:07;12.00;99.90
39503;DHT22;26970;49.900;10.774;2022-10-26T08:40:37;12.10;99.90
39503;DHT22;26970;49.900;10.774;2022-10-26T08:43:31;12.00;99.90
39503;DHT22;26970;49.900;10.774;2022-10-26T08:46:14;12.00;99.90
39503;DHT22;26970;49.900;10.774;2022-10-26T08:48:47;12.10;99.90
39503;DHT22;26970;49.900;10.774;2022-10-26T08:51:35;12.10;99.90
39503;DHT22;26970;49.900;10.774;2022-10-26T08:54:27;12.20;99.90
39503;DHT22;26970;49.900;10.774;2022-10-26T08:56:58;12.30;99.90
39503;DHT22;26970;49.900;10.774;2022-10-26T09:02:01;12.40;99.90
39503;DHT22;26970;49.900;10.774;2022-10-26T09:04:28;12.40;99.90
39503;DHT22;26970;49.900;10.774;2022-10-26T09:09:45;12.60;99.90
39503;DHT22;26970;49.900;10.774;2022-10-26T09:12:32;12.60;99.90
39503;DHT22;26970;49.900;10.774;2022-10-26T09:17:46;12.60;99.90
39503;DHT22;26970;49.900;10.774;2022-10-26T09:20:23;12.60;99.90
39503;DHT22;26970;49.900;10.774;2022-10-26T09:25:49;12.60;99.90
39503;DHT22;26970;49.900;10.774;2022-10-26T09:28:18;12.70;99.90
39503;DHT22;26970;49.900;10.774;2022-10-26T09:30:45;12.80;99.90
39503;DHT22;26970;49.900;10.774;2022-10-26T09:33:21;12.80;99.90
39503;DHT22;26970;49.900;10.774;2022-10-26T09:35:56;12.90;99.90
39503;DHT22;26970;49.900;10.774;2022-10-26T09:38:37;12.90;99.90
39503;DHT22;26970;49.900;10.774;2022-10-26T09:41:30;12.90;99.90
39503;DHT22;26970;49.900;10.774;2022-10-26T09:49:57;13.00;99.90
39503;DHT22;26970;49.900;10.774;2022-10-26T09:52:23;13.10;99.90
39503;DHT22;26970;49.900;10.774;2022-10-26T09:54:48;13.20;99.90
39503;DHT22;26970;49.900;10.774;2022-10-26T09:57:16;13.20;99.90
39503;DHT22;26970;49.900;10.774;2022-10-26T09:59:42;13.20;99.90
39503;DHT22;26970;49.900;10.774;2022-10-26T10:02:35;13.20;99.90
39503;DHT22;26970;49.900;10.774;2022-10-26T10:05:02;13.20;99.90
39503;DHT22;26970;49.900;10.774;2022-10-26T10:07:44;13.20;99.90
39503;DHT22;26970;49.900;10.774;2022-10-26T10:10:21;13.30;99.90
39503;DHT22;26970;49.900;10.774;2022-10-26T10:12:49;13.30;99.90
39503;DHT22;26970;49.900;10.774;2022-10-26T10:15:21;13.40;99.90
39503;DHT22;26970;49.900;10.774;2022-10-26T10:17:52;13.50;99.90
39503;DHT22;26970;49.900;10.774;2022-10-26T10:20:48;13.70;99.90
39503;DHT22;26970;49.900;10.774;2022-10-26T10:23:25;13.90;99.90
39503;DHT22;26970;49.900;10.774;2022-10-26T10:25:58;14.10;99.90
39503;DHT22;26970;49.900;10.774;2022-10-26T10:28:25;14.10;99.90
39503;DHT22;26970;49.900;10.774;2022-10-26T10:30:57;14.10;99.90
39503;DHT22;26970;49.900;10.774;2022-10-26T10:33:39;14.20;99.90
39503;DHT22;26970;49.900;10.774;2022-10-26T10:36:09;14.20;99.90
39503;DHT22;26970;49.900;10.774;2022-10-26T10:38:42;14.30;99.90
39503;DHT22;26970;49.900;10.774;2022-10-26T10:46:25;14.70;99.90
39503;DHT22;26970;49.900;10.774;2022-10-26T10:49:01;14.90;99.90
39503;DHT22;26970;49.900;10.774;2022-10-26T10:51:30;15.00;99.90
39503;DHT22;26970;49.900;10.774;2022-10-26T10:53:59;15.00;99.90
39503;DHT22;26970;49.900;10.774;2022-10-26T10:56:30;15.00;99.90
39503;DHT22;26970;49.900;10.774;2022-10-26T11:01:29;15.30;99.90
39503;DHT22;26970;49.900;10.774;2022-10-26T11:04:32;15.50;99.90
39503;DHT22;26970;49.900;10.774;2022-10-26T11:07:03;15.70;99.90
39503;DHT22;26970;49.900;10.774;2022-10-26T11:09:32;15.80;99.90
39503;DHT22;26970;49.900;10.774;2022-10-26T11:12:06;16.10;99.90
39503;DHT22;26970;49.900;10.774;2022-10-26T11:14:41;16.10;99.90
39503;DHT22;26970;49.900;10.774;2022-10-26T11:17:26;16.20;99.90
39503;DHT22;26970;49.900;10.774;2022-10-26T11:19:59;16.30;99.90
39503;DHT22;26970;49.900;10.774;2022-10-26T11:25:39;16.40;99.90
39503;DHT22;26970;49.900;10.774;2022-10-26T11:28:16;16.50;99.90
39503;DHT22;26970;49.900;10.774;2022-10-26T11:30:50;16.50;99.90
39503;DHT22;26970;49.900;10.774;2022-10-26T11:33:24;16.60;99.90
39503;DHT22;26970;49.900;10.774;2022-10-26T11:36:12;16.60;99.90
39503;DHT22;26970;49.900;10.774;2022-10-26T11:41:15;16.50;99.90
39503;DHT22;26970;49.900;10.774;2022-10-26T11:43:52;16.50;99.90
39503;DHT22;26970;49.900;10.774;2022-10-26T11:46:38;16.40;99.90
39503;DHT22;26970;49.900;10.774;2022-10-26T11:49:39;16.50;99.90
39503;DHT22;26970;49.900;10.774;2022-10-26T11:52:21;16.40;99.90
39503;DHT22;26970;49.900;10.774;2022-10-26T11:54:54;16.60;99.90
39503;DHT22;26970;49.900;10.774;2022-10-26T11:57:21;16.60;99.90
39503;DHT22;26970;49.900;10.774;2022-10-26T11:59:54;16.60;99.90
39503;DHT22;26970;49.900;10.774;2022-10-26T12:02:23;16.60;99.90
39503;DHT22;26970;49.900;10.774;2022-10-26T12:07:45;16.60;99.90
39503;DHT22;26970;49.900;10.774;2022-10-26T12:10:25;16.60;99.90
39503;DHT22;26970;49.900;10.774;2022-10-26T12:21:06;16.80;99.90
39503;DHT22;26970;49.900;10.774;2022-10-26T12:23:54;16.70;99.90
39503;DHT22;26970;49.900;10.774;2022-10-26T12:34:11;16.80;99.90
39503;DHT22;26970;49.900;10.774;2022-10-26T12:39:32;17.10;99.90
39503;DHT22;26970;49.900;10.774;2022-10-26T12:47:00;17.30;99.90
39503;DHT22;26970;49.900;10.774;2022-10-26T12:52:53;17.20;99.90
39503;DHT22;26970;49.900;10.774;2022-10-26T12:55:29;17.20;99.90
39503;DHT22;26970;49.900;10.774;2022-10-26T13:09:16;17.70;99.90
39503;DHT22;26970;49.900;10.774;2022-10-26T13:11:53;17.70;99.90
39503;DHT22;26970;49.900;10.774;2022-10-26T13:14:26;17.80;99.90
39503;DHT22;26970;49.900;10.774;2022-10-26T13:16:53;17.80;99.90
39503;DHT22;26970;49.900;10.774;2022-10-26T13:19:30;17.80;99.90
39503;DHT22;26970;49.900;10.774;2022-10-26T13:21:59;17.80;99.90
39503;DHT22;26970;49.900;10.774;2022-10-26T13:24:28;17.80;99.90
39503;DHT22;26970;49.900;10.774;2022-10-26T13:32:28;17.90;99.90
39503;DHT22;26970;49.900;10.774;2022-10-26T13:34:55;18.00;99.90
39503;DHT22;26970;49.900;10.774;2022-10-26T13:37:26;18.00;99.90
39503;DHT22;26970;49.900;10.774;2022-10-26T13:39:54;17.90;99.90
39503;DHT22;26970;49.900;10.774;2022-10-26T13:42:26;17.90;99.90
39503;DHT22;26970;49.900;10.774;2022-10-26T13:44:57;18.10;99.90
39503;DHT22;26970;49.900;10.774;2022-10-26T13:50:23;18.10;99.90
39503;DHT22;26970;49.900;10.774;2022-10-26T13:52:59;18.10;99.90
39503;DHT22;26970;49.900;10.774;2022-10-26T13:55:28;18.20;99.90
39503;DHT22;26970;49.900;10.774;2022-10-26T14:00:30;18.10;99.90
39503;DHT22;26970;49.900;10.774;2022-10-26T14:02:56;18.10;99.90
39503;DHT22;26970;49.900;10.774;2022-10-26T14:05:22;18.00;99.90
39503;DHT22;26970;49.900;10.774;2022-10-26T14:07:50;18.10;99.90
39503;DHT22;26970;49.900;10.774;2022-10-26T14:10:26;18.00;99.90
39503;DHT22;26970;49.900;10.774;2022-10-26T14:12:53;18.10;99.90
39503;DHT22;26970;49.900;10.774;2022-10-26T14:15:24;18.00;99.90
39503;DHT22;26970;49.900;10.774;2022-10-26T14:17:51;18.00;99.90
39503;DHT22;26970;49.900;10.774;2022-10-26T14:20:20;18.00;99.90
39503;DHT22;26970;49.900;10.774;2022-10-26T14:22:47;17.90;99.90
39503;DHT22;26970;49.900;10.774;2022-10-26T14:25:25;17.90;99.90
39503;DHT22;26970;49.900;10.774;2022-10-26T14:27:51;17.90;99.90
39503;DHT22;26970;49.900;10.774;2022-10-26T14:30:32;17.90;99.90
39503;DHT22;26970;49.900;10.774;2022-10-26T14:32:58;17.90;99.90
39503;DHT22;26970;49.900;10.774;2022-10-26T14:35:30;17.80;99.90
39503;DHT22;26970;49.900;10.774;2022-10-26T14:38:13;17.70;99.90
39503;DHT22;26970;49.900;10.774;2022-10-26T14:40:41;17.60;99.90
39503;DHT22;26970;49.900;10.774;2022-10-26T14:43:20;17.60;99.90
39503;DHT22;26970;49.900;10.774;2022-10-26T14:45:48;17.60;99.90
39503;DHT22;26970;49.900;10.774;2022-10-26T14:48:34;17.60;99.90
39503;DHT22;26970;49.900;10.774;2022-10-26T14:51:14;17.60;99.90
39503;DHT22;26970;49.900;10.774;2022-10-26T14:53:47;17.60;99.90
39503;DHT22;26970;49.900;10.774;2022-10-26T15:02:01;17.40;99.90
39503;DHT22;26970;49.900;10.774;2022-10-26T15:04:37;17.30;99.90
39503;DHT22;26970;49.900;10.774;2022-10-26T15:12:56;17.10;99.90
39503;DHT22;26970;49.900;10.774;2022-10-26T15:17:41;17.00;99.90
39503;DHT22;26970;49.900;10.774;2022-10-26T15:20:15;17.00;99.90
39503;DHT22;26970;49.900;10.774;2022-10-26T15:22:47;17.00;99.90
39503;DHT22;26970;49.900;10.774;2022-10-26T15:25:17;17.00;99.90
39503;DHT22;26970;49.900;10.774;2022-10-26T15:27:45;17.00;99.90
39503;DHT22;26970;49.900;10.774;2022-10-26T15:30:21;17.00;99.90
39503;DHT22;26970;49.900;10.774;2022-10-26T15:32:47;16.90;99.90
39503;DHT22;26970;49.900;10.774;2022-10-26T15:35:23;16.80;99.90
39503;DHT22;26970;49.900;10.774;2022-10-26T15:37:52;16.80;99.90
39503;DHT22;26970;49.900;10.774;2022-10-26T15:40:18;16.70;99.90
39503;DHT22;26970;49.900;10.774;2022-10-26T15:42:49;16.70;99.90
39503;DHT22;26970;49.900;10.774;2022-10-26T15:45:22;16.60;99.90
39503;DHT22;26970;49.900;10.774;2022-10-26T15:47:50;16.60;99.90
39503;DHT22;26970;49.900;10.774;2022-10-26T15:50:19;16.50;99.90
39503;DHT22;26970;49.900;10.774;2022-10-26T15:52:45;16.40;99.90
39503;DHT22;26970;49.900;10.774;2022-10-26T15:55:11;16.40;99.90
39503;DHT22;26970;49.900;10.774;2022-10-26T15:57:37;16.30;99.90
39503;DHT22;26970;49.900;10.774;2022-10-26T16:00:04;16.30;99.90
39503;DHT22;26970;49.900;10.774;2022-10-26T16:02:32;16.20;99.90
39503;DHT22;26970;49.900;10.774;2022-10-26T16:04:58;16.20;99.90
39503;DHT22;26970;49.900;10.774;2022-10-26T16:07:25;16.10;99.90
39503;DHT22;26970;49.900;10.774;2022-10-26T16:09:52;16.10;99.90
39503;DHT22;26970;49.900;10.774;2022-10-26T16:12:18;16.10;99.90
39503;DHT22;26970;49.900;10.774;2022-10-26T16:14:44;16.10;99.90
39503;DHT22;26970;49.900;10.774;2022-10-26T16:17:10;16.00;99.90
39503;DHT22;26970;49.900;10.774;2022-10-26T16:19:35;16.00;99.90
39503;DHT22;26970;49.900;10.774;2022-10-26T16:22:01;15.90;99.90
39503;DHT22;26970;49.900;10.774;2022-10-26T16:24:30;15.90;99.90
39503;DHT22;26970;49.900;10.774;2022-10-26T16:26:56;15.90;99.90
39503;DHT22;26970;49.900;10.774;2022-10-26T16:29:22;15.90;99.90
39503;DHT22;26970;49.900;10.774;2022-10-26T16:31:48;15.90;99.90
39503;DHT22;26970;49.900;10.774;2022-10-26T16:34:14;15.90;99.90
39503;DHT22;26970;49.900;10.774;2022-10-26T16:36:40;15.80;99.90
39503;DHT22;26970;49.900;10.774;2022-10-26T16:39:06;15.90;99.90
39503;DHT22;26970;49.900;10.774;2022-10-26T16:41:31;15.90;99.90
39503;DHT22;26970;49.900;10.774;2022-10-26T16:43:58;15.90;99.90
39503;DHT22;26970;49.900;10.774;2022-10-26T16:46:24;15.80;99.90
39503;DHT22;26970;49.900;10.774;2022-10-26T16:48:50;15.80;99.90
39503;DHT22;26970;49.900;10.774;2022-10-26T16:51:20;15.80;99.90
39503;DHT22;26970;49.900;10.774;2022-10-26T16:53:48;15.80;99.90
39503;DHT22;26970;49.900;10.774;2022-10-26T16:56:16;15.80;99.90
39503;DHT22;26970;49.900;10.774;2022-10-26T16:58:42;15.80;99.90
39503;DHT22;26970;49.900;10.774;2022-10-26T17:01:08;15.80;99.90
39503;DHT22;26970;49.900;10.774;2022-10-26T17:03:34;15.70;99.90
39503;DHT22;26970;49.900;10.774;2022-10-26T17:06:02;15.70;99.90
39503;DHT22;26970;49.900;10.774;2022-10-26T17:08:28;15.70;99.90
39503;DHT22;26970;49.900;10.774;2022-10-26T17:11:07;15.80;99.90
39503;DHT22;26970;49.900;10.774;2022-10-26T17:13:34;15.80;99.90
39503;DHT22;26970;49.900;10.774;2022-10-26T17:18:30;15.80;99.90
39503;DHT22;26970;49.900;10.774;2022-10-26T17:20:56;15.70;99.90
39503;DHT22;26970;49.900;10.774;2022-10-26T17:23:22;15.70;99.90
39503;DHT22;26970;49.900;10.774;2022-10-26T17:25:47;15.60;99.90
39503;DHT22;26970;49.900;10.774;2022-10-26T17:28:13;15.50;99.90
39503;DHT22;26970;49.900;10.774;2022-10-26T17:30:39;15.40;99.90
39503;DHT22;26970;49.900;10.774;2022-10-26T17:33:05;15.30;99.90
39503;DHT22;26970;49.900;10.774;2022-10-26T17:35:32;15.20;99.90
39503;DHT22;26970;49.900;10.774;2022-10-26T17:37:58;15.20;99.90
39503;DHT22;26970;49.900;10.774;2022-10-26T17:40:24;15.10;99.90
39503;DHT22;26970;49.900;10.774;2022-10-26T17:42:49;15.10;99.90
39503;DHT22;26970;49.900;10.774;2022-10-26T17:45:15;15.10;99.90
39503;DHT22;26970;49.900;10.774;2022-10-26T17:47:41;15.10;99.90
39503;DHT22;26970;49.900;10.774;2022-10-26T17:50:07;15.10;99.90
39503;DHT22;26970;49.900;10.774;2022-10-26T17:52:32;15.10;99.90
39503;DHT22;26970;49.900;10.774;2022-10-26T17:54:58;15.10;99.90
39503;DHT22;26970;49.900;10.774;2022-10-26T17:57:24;15.10;99.90